createdAt,value
2022-09-05T00:00:31.938Z,17.05
2022-09-05T00:01:31.887Z,17.06
2022-09-05T00:02:31.954Z,17.05
2022-09-05T00:03:32.221Z,17.03
2022-09-05T00:04:31.916Z,17.02
2022-09-05T00:05:31.859Z,17.02
2022-09-05T00:06:31.838Z,17.02
2022-09-05T00:07:58.251Z,17.00
2022-09-05T00:08:32.797Z,17.00
2022-09-05T00:09:31.777Z,16.99
2022-09-05T00:10:36.184Z,16.95
2022-09-05T00:11:41.254Z,16.92
2022-09-05T00:12:32.756Z,16.90
2022-09-05T00:13:31.733Z,16.90
2022-09-05T00:14:53.183Z,16.90
2022-09-05T00:15:32.721Z,16.91
2022-09-05T00:16:31.753Z,16.90
2022-09-05T00:18:00.256Z,16.90
2022-09-05T00:19:32.679Z,16.87
2022-09-05T00:22:23.763Z,16.87
2022-09-05T00:24:28.309Z,16.81
2022-09-05T00:24:28.687Z,16.82
2022-09-05T00:24:33.160Z,16.81
2022-09-05T00:24:37.606Z,16.84
2022-09-05T00:24:54.733Z,16.80
2022-09-05T00:25:33.188Z,16.77
2022-09-05T00:26:31.565Z,16.75
2022-09-05T00:27:31.564Z,16.75
2022-09-05T00:28:31.546Z,16.77
2022-09-05T00:29:50.521Z,16.75
2022-09-05T00:31:08.815Z,16.73
2022-09-05T00:31:55.646Z,16.72
2022-09-05T00:32:32.617Z,16.69
2022-09-05T00:33:31.705Z,16.69
2022-09-05T00:34:36.147Z,16.67
2022-09-05T00:35:32.466Z,16.67
2022-09-05T00:36:31.444Z,16.65
2022-09-05T00:37:31.434Z,16.63
2022-09-05T00:38:36.882Z,16.63
2022-09-05T00:39:32.488Z,16.62
2022-09-05T00:40:31.440Z,16.59
2022-09-05T00:41:34.199Z,16.54
2022-09-05T00:42:31.363Z,16.52
2022-09-05T00:43:31.343Z,16.52
2022-09-05T00:44:31.334Z,16.51
2022-09-05T00:45:31.331Z,16.51
2022-09-05T00:46:32.060Z,16.51
2022-09-05T00:47:31.293Z,16.51
2022-09-05T00:48:31.274Z,16.50
2022-09-05T00:49:31.273Z,16.50
2022-09-05T00:50:31.262Z,16.47
2022-09-05T00:51:34.638Z,16.50
2022-09-05T00:52:31.242Z,16.47
2022-09-05T00:53:31.210Z,16.45
2022-09-05T00:54:40.498Z,16.45
2022-09-05T00:55:32.220Z,16.44
2022-09-05T00:56:31.177Z,16.42
2022-09-05T00:57:31.152Z,16.42
2022-09-05T00:58:34.048Z,16.41
2022-09-05T00:59:31.134Z,16.41
2022-09-05T01:00:31.164Z,16.40
2022-09-05T01:01:31.240Z,16.40
2022-09-05T01:02:31.242Z,16.37
2022-09-05T01:03:31.068Z,16.36
2022-09-05T01:04:31.083Z,16.33
2022-09-05T01:05:31.063Z,16.33
2022-09-05T01:06:31.041Z,16.33
2022-09-05T01:07:31.031Z,16.32
2022-09-05T01:08:31.020Z,16.29
2022-09-05T01:09:31.000Z,16.29
2022-09-05T01:10:30.991Z,16.27
2022-09-05T01:11:31.044Z,16.25
2022-09-05T01:12:30.969Z,16.25
2022-09-05T01:13:30.969Z,16.17
2022-09-05T01:14:30.937Z,16.17
2022-09-05T01:15:32.399Z,16.18
2022-09-05T01:16:30.920Z,16.18
2022-09-05T01:17:30.900Z,16.22
2022-09-05T01:18:30.898Z,16.17
2022-09-05T01:19:30.871Z,16.16
2022-09-05T01:20:31.363Z,16.14
2022-09-05T01:21:30.865Z,16.14
2022-09-05T01:22:30.840Z,16.10
2022-09-05T01:23:30.828Z,16.11
2022-09-05T01:24:30.831Z,16.13
2022-09-05T01:25:30.798Z,16.08
2022-09-05T01:26:30.788Z,16.06
2022-09-05T01:27:40.949Z,16.06
2022-09-05T01:29:17.701Z,16.03
2022-09-05T01:29:31.772Z,16.01
2022-09-05T01:30:32.144Z,16.03
2022-09-05T01:31:30.796Z,16.01
2022-09-05T01:32:30.709Z,15.98
2022-09-05T01:33:30.685Z,15.96
2022-09-05T01:34:32.055Z,15.92
2022-09-05T01:35:30.708Z,15.91
2022-09-05T01:36:30.679Z,15.91
2022-09-05T01:37:33.479Z,15.92
2022-09-05T01:38:30.658Z,15.92
2022-09-05T01:40:11.499Z,15.92
2022-09-05T01:40:31.691Z,15.91
2022-09-05T01:41:30.631Z,15.91
2022-09-05T01:42:31.735Z,15.86
2022-09-05T01:43:30.627Z,15.86
2022-09-05T01:44:30.554Z,15.86
2022-09-05T01:45:39.245Z,15.89
2022-09-05T01:46:31.616Z,15.86
2022-09-05T01:47:31.262Z,15.85
2022-09-05T01:48:30.508Z,15.84
2022-09-05T01:49:30.496Z,15.80
2022-09-05T01:50:30.484Z,15.78
2022-09-05T01:51:31.438Z,15.80
2022-09-05T01:52:30.457Z,15.80
2022-09-05T01:53:30.445Z,15.81
2022-09-05T01:54:30.430Z,15.80
2022-09-05T01:55:30.436Z,15.78
2022-09-05T01:56:30.457Z,15.78
2022-09-05T01:57:30.394Z,15.77
2022-09-05T01:58:31.934Z,15.77
2022-09-05T01:59:30.367Z,15.74
2022-09-05T02:00:30.371Z,15.76
2022-09-05T02:01:33.036Z,15.74
2022-09-05T02:02:30.419Z,15.71
2022-09-05T02:03:30.313Z,15.71
2022-09-05T02:04:30.303Z,15.73
2022-09-05T02:05:48.434Z,15.73
2022-09-05T02:06:31.285Z,15.71
2022-09-05T02:07:31.790Z,15.71
2022-09-05T02:08:30.253Z,15.70
2022-09-05T02:09:30.281Z,15.71
2022-09-05T02:10:30.222Z,15.73
2022-09-05T02:11:35.836Z,15.73
2022-09-05T02:13:41.405Z,15.73
2022-09-05T02:14:41.393Z,15.70
2022-09-05T02:15:41.400Z,15.68
2022-09-05T02:16:41.367Z,15.68
2022-09-05T02:17:50.653Z,15.68
2022-09-05T02:18:42.319Z,15.68
2022-09-05T02:19:41.322Z,15.66
2022-09-05T02:20:41.303Z,15.64
2022-09-05T02:21:56.692Z,15.64
2022-09-05T02:22:42.277Z,15.66
2022-09-05T02:23:42.464Z,15.62
2022-09-05T02:24:41.254Z,15.60
2022-09-05T02:26:02.330Z,15.59
2022-09-05T02:26:42.264Z,15.59
2022-09-05T02:28:05.014Z,15.58
2022-09-05T02:28:42.186Z,15.59
2022-09-05T02:29:41.186Z,15.60
2022-09-05T02:30:47.396Z,15.56
2022-09-05T02:31:42.232Z,15.56
2022-09-05T02:32:43.149Z,15.55
2022-09-05T02:33:41.159Z,15.52
2022-09-05T02:34:41.123Z,15.51
2022-09-05T02:35:41.174Z,15.51
2022-09-05T02:36:41.083Z,15.52
2022-09-05T02:41:29.083Z,15.52
2022-09-05T02:42:00.191Z,15.52
2022-09-05T02:45:06.637Z,15.53
2022-09-05T02:45:08.928Z,15.51
2022-09-05T02:45:10.694Z,15.43
2022-09-05T02:45:13.853Z,15.46
2022-09-05T02:45:14.211Z,15.48
2022-09-05T02:45:21.086Z,15.43
2022-09-05T02:45:42.146Z,15.43
2022-09-05T02:46:41.046Z,15.40
2022-09-05T02:47:40.985Z,15.40
2022-09-05T02:48:40.979Z,15.38
2022-09-05T02:54:14.260Z,15.37
2022-09-05T02:56:17.927Z,15.35
2022-09-05T02:57:24.270Z,15.34
2022-09-05T02:57:24.610Z,15.30
2022-09-05T02:57:27.752Z,15.33
2022-09-05T02:57:40.974Z,15.28
2022-09-05T02:57:41.150Z,15.27
2022-09-05T02:57:43.481Z,15.28
2022-09-05T02:58:07.047Z,15.30
2022-09-05T02:59:06.126Z,15.31
2022-09-05T02:59:41.805Z,15.30
2022-09-05T03:00:40.810Z,15.27
2022-09-05T03:01:40.826Z,15.28
2022-09-05T03:02:40.791Z,15.28
2022-09-05T03:03:40.755Z,15.25
2022-09-05T03:04:40.742Z,15.25
2022-09-05T03:05:40.758Z,15.23
2022-09-05T03:06:40.707Z,15.23
2022-09-05T03:07:40.677Z,15.22
2022-09-05T03:08:40.704Z,15.16
2022-09-05T03:09:40.685Z,15.18
2022-09-05T03:10:53.784Z,15.20
2022-09-05T03:11:41.636Z,15.20
2022-09-05T03:12:40.621Z,15.19
2022-09-05T03:13:50.147Z,15.16
2022-09-05T03:14:41.601Z,15.16
2022-09-05T03:15:40.609Z,15.15
2022-09-05T03:16:47.030Z,15.15
2022-09-05T03:17:41.550Z,15.15
2022-09-05T03:18:40.574Z,15.16
2022-09-05T03:19:46.510Z,15.16
2022-09-05T03:20:41.532Z,15.16
2022-09-05T03:21:40.582Z,15.15
2022-09-05T03:22:40.483Z,15.13
2022-09-05T03:23:40.530Z,15.13
2022-09-05T03:24:40.450Z,15.13
2022-09-05T03:25:40.481Z,15.13
2022-09-05T03:26:40.438Z,15.15
2022-09-05T03:27:40.423Z,15.13
2022-09-05T03:28:40.421Z,15.13
2022-09-05T03:29:40.411Z,15.11
2022-09-05T03:30:40.427Z,15.12
2022-09-05T03:31:40.371Z,15.11
2022-09-05T03:32:42.219Z,15.07
2022-09-05T03:33:41.487Z,15.09
2022-09-05T03:34:40.328Z,15.07
2022-09-05T03:35:40.298Z,15.04
2022-09-05T03:36:40.309Z,15.01
2022-09-05T03:37:40.296Z,15.03
2022-09-05T03:38:40.398Z,15.01
2022-09-05T03:39:40.326Z,15.00
2022-09-05T03:40:40.248Z,15.01
2022-09-05T03:41:40.994Z,15.01
2022-09-05T03:42:40.213Z,15.01
2022-09-05T03:43:40.220Z,15.03
2022-09-05T03:44:40.200Z,15.01
2022-09-05T03:45:40.192Z,14.98
2022-09-05T03:46:40.197Z,15.01
2022-09-05T03:47:40.311Z,15.00
2022-09-05T03:48:40.167Z,15.01
2022-09-05T03:53:28.078Z,15.01
2022-09-05T03:57:04.924Z,15.00
2022-09-05T03:57:10.744Z,14.98
2022-09-05T03:57:13.121Z,14.93
2022-09-05T03:57:13.298Z,14.93
2022-09-05T03:57:14.439Z,14.97
2022-09-05T03:57:22.569Z,14.94
2022-09-05T03:57:26.847Z,14.93
2022-09-05T03:57:42.770Z,14.93
2022-09-05T03:58:56.451Z,14.91
2022-09-05T03:59:41.037Z,14.90
2022-09-05T04:00:40.008Z,14.86
2022-09-05T04:03:29.432Z,14.86
2022-09-05T04:07:32.451Z,14.87
2022-09-05T04:08:09.003Z,14.90
2022-09-05T04:08:17.177Z,14.86
2022-09-05T04:08:17.422Z,14.80
2022-09-05T04:08:19.742Z,14.83
2022-09-05T04:08:23.589Z,14.83
2022-09-05T04:08:43.108Z,14.82
2022-09-05T04:09:50.567Z,14.83
2022-09-05T04:10:40.959Z,14.83
2022-09-05T04:11:39.845Z,14.85
2022-09-05T04:12:39.830Z,14.87
2022-09-05T04:13:39.828Z,14.83
2022-09-05T04:14:39.835Z,14.80
2022-09-05T04:15:39.783Z,14.80
2022-09-05T04:16:39.894Z,14.82
2022-09-05T04:17:39.785Z,14.83
2022-09-05T04:18:39.779Z,14.82
2022-09-05T04:19:39.733Z,14.79
2022-09-05T04:20:40.659Z,14.78
2022-09-05T04:21:39.743Z,14.75
2022-09-05T04:22:39.720Z,14.75
2022-09-05T04:23:39.760Z,14.78
2022-09-05T04:24:39.684Z,14.78
2022-09-05T04:25:39.683Z,14.80
2022-09-05T04:26:39.665Z,14.75
2022-09-05T04:27:39.681Z,14.75
2022-09-05T04:28:41.396Z,14.75
2022-09-05T04:29:40.637Z,14.75
2022-09-05T04:30:40.510Z,14.74
2022-09-05T04:31:39.642Z,14.75
2022-09-05T04:32:39.571Z,14.79
2022-09-05T04:33:39.580Z,14.79
2022-09-05T04:34:39.551Z,14.78
2022-09-05T04:35:39.562Z,14.79
2022-09-05T04:36:39.553Z,14.80
2022-09-05T04:37:48.981Z,14.79
2022-09-05T04:38:40.538Z,14.78
2022-09-05T04:39:39.547Z,14.79
2022-09-05T04:40:40.040Z,14.82
2022-09-05T04:41:40.186Z,14.85
2022-09-05T04:42:39.455Z,14.83
2022-09-05T04:43:39.582Z,14.80
2022-09-05T04:44:39.454Z,14.82
2022-09-05T04:45:39.584Z,14.93
2022-09-05T04:46:48.294Z,15.03
2022-09-05T04:47:41.198Z,14.98
2022-09-05T04:48:40.329Z,14.93
2022-09-05T04:49:39.346Z,14.95
2022-09-05T04:50:39.380Z,15.00
2022-09-05T04:51:39.424Z,15.05
2022-09-05T04:52:39.332Z,15.01
2022-09-05T04:53:39.319Z,15.04
2022-09-05T04:54:39.386Z,15.00
2022-09-05T04:55:39.276Z,14.97
2022-09-05T04:56:39.332Z,14.95
2022-09-05T04:57:39.254Z,15.00
2022-09-05T05:00:04.178Z,14.98
2022-09-05T05:04:39.467Z,14.95
2022-09-05T05:06:01.008Z,14.95
2022-09-05T05:06:08.224Z,14.93
2022-09-05T05:06:10.495Z,14.95
2022-09-05T05:06:10.846Z,14.90
2022-09-05T05:06:12.049Z,14.97
2022-09-05T05:06:14.657Z,14.97
2022-09-05T05:06:46.114Z,14.93
2022-09-05T05:07:40.243Z,14.93
2022-09-05T05:08:39.682Z,14.95
2022-09-05T05:09:39.208Z,14.95
2022-09-05T05:10:58.765Z,14.98
2022-09-05T05:17:53.890Z,15.00
2022-09-05T05:18:00.667Z,14.98
2022-09-05T05:18:07.037Z,15.09
2022-09-05T05:18:07.792Z,15.13
2022-09-05T05:18:08.808Z,15.01
2022-09-05T05:18:10.906Z,15.05
2022-09-05T05:18:12.645Z,15.09
2022-09-05T05:18:56.075Z,15.07
2022-09-05T05:19:40.089Z,15.12
2022-09-05T05:20:39.933Z,15.13
2022-09-05T05:21:39.301Z,15.16
2022-09-05T05:22:39.720Z,15.18
2022-09-05T05:23:38.909Z,15.20
2022-09-05T05:24:39.901Z,15.20
2022-09-05T05:25:38.886Z,15.16
2022-09-05T05:26:38.879Z,15.13
2022-09-05T05:27:38.934Z,15.15
2022-09-05T05:28:38.845Z,15.18
2022-09-05T05:29:38.890Z,15.23
2022-09-05T05:30:38.820Z,15.23
2022-09-05T05:31:39.027Z,15.22
2022-09-05T05:32:46.165Z,15.25
2022-09-05T05:33:39.775Z,15.23
2022-09-05T05:34:38.765Z,15.20
2022-09-05T05:35:47.989Z,15.18
2022-09-05T05:36:39.785Z,15.20
2022-09-05T05:37:40.032Z,15.27
2022-09-05T05:38:38.704Z,15.30
2022-09-05T05:39:38.815Z,15.28
2022-09-05T05:40:40.981Z,15.23
2022-09-05T05:41:39.691Z,15.28
2022-09-05T05:42:38.679Z,15.33
2022-09-05T05:43:41.765Z,15.33
2022-09-05T05:44:39.669Z,15.31
2022-09-05T05:45:38.762Z,15.31
2022-09-05T05:46:38.604Z,15.30
2022-09-05T05:47:38.599Z,15.27
2022-09-05T05:48:39.020Z,15.27
2022-09-05T05:49:38.569Z,15.23
2022-09-05T05:50:38.592Z,15.22
2022-09-05T05:52:02.499Z,15.22
2022-09-05T05:52:39.575Z,15.23
2022-09-05T05:53:42.851Z,15.18
2022-09-05T05:54:38.804Z,15.16
2022-09-05T05:55:51.832Z,15.16
2022-09-05T05:56:39.476Z,15.18
2022-09-05T05:57:38.472Z,15.15
2022-09-05T05:58:38.481Z,15.18
2022-09-05T05:59:38.425Z,15.20
2022-09-05T06:00:38.428Z,15.23
2022-09-05T06:01:38.938Z,15.25
2022-09-05T06:02:38.483Z,15.28
2022-09-05T06:03:38.545Z,15.27
2022-09-05T06:04:45.054Z,15.23
2022-09-05T06:05:39.386Z,15.28
2022-09-05T06:06:38.780Z,15.31
2022-09-05T06:09:40.770Z,15.35
2022-09-05T06:12:24.660Z,15.38
2022-09-05T06:14:52.969Z,15.43
2022-09-05T06:14:56.051Z,15.55
2022-09-05T06:14:56.532Z,15.49
2022-09-05T06:14:57.621Z,15.58
2022-09-05T06:15:06.828Z,15.55
2022-09-05T06:15:06.829Z,15.56
2022-09-05T06:15:39.249Z,15.64
2022-09-05T06:16:38.250Z,15.66
2022-09-05T06:17:38.259Z,15.71
2022-09-05T06:18:38.216Z,15.71
2022-09-05T06:22:04.922Z,15.74
2022-09-05T06:22:10.021Z,15.81
2022-09-05T06:22:10.314Z,15.88
2022-09-05T06:22:39.165Z,15.92
2022-09-05T06:23:39.773Z,15.98
2022-09-05T06:24:38.115Z,16.01
2022-09-05T06:25:38.265Z,16.06
2022-09-05T06:26:38.136Z,16.07
2022-09-05T06:28:01.499Z,16.11
2022-09-05T06:28:39.044Z,16.10
2022-09-05T06:29:38.755Z,16.10
2022-09-05T06:30:38.032Z,16.10
2022-09-05T06:31:38.074Z,16.08
2022-09-05T06:32:38.117Z,16.07
2022-09-05T06:33:38.003Z,16.10
2022-09-05T06:34:37.995Z,16.18
2022-09-05T06:35:38.035Z,16.27
2022-09-05T06:36:37.964Z,16.33
2022-09-05T06:37:37.937Z,16.40
2022-09-05T06:38:37.960Z,16.47
2022-09-05T06:39:37.956Z,16.54
2022-09-05T06:40:38.903Z,16.59
2022-09-05T06:41:37.885Z,16.63
2022-09-05T06:42:43.449Z,16.67
2022-09-05T06:43:38.884Z,16.69
2022-09-05T06:44:37.833Z,16.69
2022-09-05T06:45:37.834Z,16.72
2022-09-05T06:46:54.723Z,16.70
2022-09-05T06:47:38.824Z,16.63
2022-09-05T06:48:45.772Z,16.63
2022-09-05T06:49:41.782Z,16.65
2022-09-05T06:51:01.989Z,16.67
2022-09-05T06:51:44.754Z,16.67
2022-09-05T06:52:38.742Z,16.67
2022-09-05T06:53:37.840Z,16.69
2022-09-05T06:54:37.760Z,16.72
2022-09-05T06:55:37.730Z,16.70
2022-09-05T06:56:37.737Z,16.67
2022-09-05T06:57:44.069Z,16.69
2022-09-05T06:58:38.725Z,16.69
2022-09-05T06:59:37.761Z,16.75
2022-09-05T07:00:37.680Z,16.81
2022-09-05T07:01:59.568Z,16.88
2022-09-05T07:02:58.155Z,16.87
2022-09-05T07:03:38.612Z,16.87
2022-09-05T07:05:24.798Z,16.92
2022-09-05T07:05:44.564Z,16.96
2022-09-05T07:06:49.439Z,16.98
2022-09-05T07:07:42.457Z,16.95
2022-09-05T07:08:38.574Z,16.95
2022-09-05T07:09:37.633Z,16.96
2022-09-05T07:10:39.174Z,17.00
2022-09-05T07:11:38.591Z,17.06
2022-09-05T07:12:37.477Z,17.12
2022-09-05T07:13:44.578Z,17.20
2022-09-05T07:14:38.469Z,17.27
2022-09-05T07:15:37.517Z,17.28
2022-09-05T07:16:39.032Z,17.32
2022-09-05T07:17:53.507Z,17.30
2022-09-05T07:18:38.406Z,17.33
2022-09-05T07:19:37.476Z,17.38
2022-09-05T07:21:17.166Z,17.40
2022-09-05T07:21:38.381Z,17.43
2022-09-05T07:22:48.073Z,17.45
2022-09-05T07:23:38.383Z,17.46
2022-09-05T07:24:54.568Z,17.46
2022-09-05T07:25:38.456Z,17.51
2022-09-05T07:26:51.480Z,17.58
2022-09-05T07:27:44.444Z,17.63
2022-09-05T07:28:38.292Z,17.63
2022-09-05T07:29:37.281Z,17.71
2022-09-05T07:30:37.309Z,17.68
2022-09-05T07:31:38.216Z,17.68
2022-09-05T07:32:38.127Z,17.71
2022-09-05T07:33:37.319Z,17.76
2022-09-05T07:34:37.248Z,17.77
2022-09-05T07:35:42.311Z,17.81
2022-09-05T07:36:37.180Z,17.77
2022-09-05T07:37:37.170Z,17.74
2022-09-05T07:38:52.361Z,17.71
2022-09-05T07:39:38.187Z,17.73
2022-09-05T07:40:37.165Z,17.80
2022-09-05T07:41:37.106Z,17.92
2022-09-05T07:42:37.202Z,17.99
2022-09-05T07:43:37.221Z,18.05
2022-09-05T07:44:37.084Z,18.07
2022-09-05T07:45:37.095Z,17.94
2022-09-05T07:46:37.072Z,17.91
2022-09-05T07:47:37.065Z,17.95
2022-09-05T07:48:37.053Z,17.91
2022-09-05T07:49:42.246Z,17.86
2022-09-05T07:55:00.511Z,17.89
2022-09-05T07:56:50.175Z,18.02
2022-09-05T07:56:51.065Z,17.96
2022-09-05T07:56:52.924Z,17.99
2022-09-05T07:56:54.203Z,17.99
2022-09-05T07:56:56.945Z,17.99
2022-09-05T07:57:00.092Z,17.98
2022-09-05T07:57:50.662Z,18.05
2022-09-05T07:58:37.908Z,18.14
2022-09-05T07:59:36.894Z,18.21
2022-09-05T08:00:36.949Z,18.32
2022-09-05T08:01:36.901Z,18.44
2022-09-05T08:02:36.855Z,18.53
2022-09-05T08:03:37.603Z,18.56
2022-09-05T08:04:36.896Z,18.59
2022-09-05T08:05:36.951Z,18.64
2022-09-05T08:07:45.486Z,18.68
2022-09-05T08:07:46.632Z,18.74
2022-09-05T08:08:37.759Z,18.78
2022-09-05T08:10:06.772Z,18.78
2022-09-05T08:11:21.937Z,18.75
2022-09-05T08:11:37.739Z,18.72
2022-09-05T08:13:22.452Z,18.75
2022-09-05T08:13:38.902Z,18.82
2022-09-05T08:14:45.098Z,18.82
2022-09-05T08:15:39.647Z,18.76
2022-09-05T08:16:37.711Z,18.71
2022-09-05T08:17:36.641Z,18.64
2022-09-05T08:18:36.633Z,18.59
2022-09-05T08:19:36.606Z,18.60
2022-09-05T08:20:36.614Z,18.68
2022-09-05T08:21:39.866Z,18.76
2022-09-05T08:22:36.598Z,18.90
2022-09-05T08:23:36.553Z,18.96
2022-09-05T08:24:36.596Z,18.99
2022-09-05T08:25:43.647Z,19.10
2022-09-05T08:26:37.504Z,19.20
2022-09-05T08:27:36.522Z,19.27
2022-09-05T08:28:38.965Z,19.38
2022-09-05T08:29:36.534Z,19.45
2022-09-05T08:30:36.483Z,19.50
2022-09-05T08:31:38.550Z,19.55
2022-09-05T08:32:37.434Z,19.53
2022-09-05T08:33:36.449Z,19.47
2022-09-05T08:34:44.620Z,19.49
2022-09-05T08:35:37.545Z,19.42
2022-09-05T08:36:36.417Z,19.43
2022-09-05T08:37:36.484Z,19.42
2022-09-05T08:38:40.496Z,19.43
2022-09-05T08:39:36.450Z,19.49
2022-09-05T08:40:36.384Z,19.53
2022-09-05T08:41:51.172Z,19.55
2022-09-05T08:42:37.685Z,19.67
2022-09-05T08:46:37.955Z,19.75
2022-09-05T08:46:42.801Z,19.76
2022-09-05T08:46:45.844Z,19.78
2022-09-05T08:46:49.426Z,19.80
2022-09-05T08:47:45.761Z,19.78
2022-09-05T08:48:37.233Z,19.79
2022-09-05T08:49:37.935Z,19.75
2022-09-05T08:50:37.217Z,19.78
2022-09-05T08:51:36.241Z,19.76
2022-09-05T08:52:38.063Z,19.70
2022-09-05T08:53:46.079Z,19.68
2022-09-05T08:54:37.212Z,19.75
2022-09-05T08:55:36.145Z,19.83
2022-09-05T08:56:36.162Z,19.90
2022-09-05T08:57:36.104Z,19.89
2022-09-05T08:58:36.133Z,19.92
2022-09-05T08:59:45.802Z,19.94
2022-09-05T09:00:37.117Z,19.90
2022-09-05T09:01:46.538Z,19.97
2022-09-05T09:02:48.021Z,20.04
2022-09-05T09:03:37.123Z,20.12
2022-09-05T09:05:01.171Z,20.22
2022-09-05T09:06:12.193Z,20.34
2022-09-05T09:06:37.054Z,20.40
2022-09-05T09:07:51.218Z,20.26
2022-09-05T09:08:36.983Z,20.16
2022-09-05T09:09:35.972Z,20.17
2022-09-05T09:10:35.966Z,20.22
2022-09-05T09:11:36.935Z,20.23
2022-09-05T09:12:35.941Z,20.20
2022-09-05T09:13:35.918Z,20.16
2022-09-05T09:14:35.893Z,20.16
2022-09-05T09:15:35.897Z,20.15
2022-09-05T09:16:35.897Z,20.10
2022-09-05T09:17:35.856Z,20.17
2022-09-05T09:18:36.157Z,20.31
2022-09-05T09:19:35.891Z,20.40
2022-09-05T09:20:35.837Z,20.44
2022-09-05T09:21:35.831Z,20.34
2022-09-05T09:22:35.779Z,20.35
2022-09-05T09:23:35.760Z,20.40
2022-09-05T09:24:35.838Z,20.54
2022-09-05T09:25:35.776Z,20.58
2022-09-05T09:26:35.891Z,20.71
2022-09-05T09:27:41.749Z,20.81
2022-09-05T09:28:48.035Z,20.87
2022-09-05T09:29:36.704Z,20.85
2022-09-05T09:30:35.728Z,20.79
2022-09-05T09:31:36.085Z,20.82
2022-09-05T09:32:35.759Z,20.88
2022-09-05T09:33:35.650Z,20.87
2022-09-05T09:34:38.164Z,20.91
2022-09-05T09:35:35.642Z,20.97
2022-09-05T09:36:35.610Z,21.01
2022-09-05T09:37:51.746Z,21.00
2022-09-05T09:38:36.578Z,21.08
2022-09-05T09:39:39.356Z,21.08
2022-09-05T09:40:35.550Z,21.13
2022-09-05T09:41:35.539Z,21.19
2022-09-05T09:42:35.568Z,21.18
2022-09-05T09:43:35.509Z,21.22
2022-09-05T09:44:35.497Z,21.18
2022-09-05T09:45:35.548Z,21.15
2022-09-05T09:46:39.146Z,21.18
2022-09-05T09:47:35.550Z,21.30
2022-09-05T09:48:35.417Z,21.40
2022-09-05T09:49:35.439Z,21.43
2022-09-05T09:50:35.438Z,21.40
2022-09-05T09:51:35.634Z,21.48
2022-09-05T09:52:35.399Z,21.58
2022-09-05T09:53:36.995Z,21.63
2022-09-05T09:54:35.359Z,21.67
2022-09-05T09:55:35.374Z,21.67
2022-09-05T09:56:35.399Z,21.56
2022-09-05T09:57:35.305Z,21.52
2022-09-05T09:58:35.328Z,21.53
2022-09-05T09:59:35.320Z,21.55
2022-09-05T10:00:36.392Z,21.55
2022-09-05T10:01:37.302Z,21.66
2022-09-05T10:06:49.560Z,21.73
2022-09-05T10:06:59.094Z,21.82
2022-09-05T10:10:35.868Z,21.83
2022-09-05T10:10:38.624Z,21.86
2022-09-05T10:10:45.321Z,21.85
2022-09-05T10:10:52.197Z,21.77
2022-09-05T10:11:09.341Z,21.82
2022-09-05T10:11:18.855Z,21.81
2022-09-05T10:11:24.530Z,21.73
2022-09-05T10:11:53.785Z,21.81
2022-09-05T10:12:36.151Z,21.74
2022-09-05T10:13:35.107Z,21.75
2022-09-05T10:14:49.868Z,21.81
2022-09-05T10:15:36.080Z,21.83
2022-09-05T10:16:35.160Z,21.89
2022-09-05T10:17:35.067Z,21.99
2022-09-05T10:18:35.066Z,22.06
2022-09-05T10:20:36.074Z,22.17
2022-09-05T10:21:35.010Z,22.23
2022-09-05T10:22:36.972Z,22.26
2022-09-05T10:23:34.983Z,22.20
2022-09-05T10:24:34.979Z,22.20
2022-09-05T10:25:34.966Z,22.17
2022-09-05T10:26:35.317Z,22.23
2022-09-05T10:27:34.919Z,22.21
2022-09-05T10:28:35.557Z,22.17
2022-09-05T10:29:38.487Z,22.17
2022-09-05T10:32:59.501Z,22.17
2022-09-05T10:33:49.806Z,22.21
2022-09-05T10:35:08.138Z,22.17
2022-09-05T10:35:17.696Z,22.21
2022-09-05T10:35:20.937Z,22.20
2022-09-05T10:35:37.664Z,22.26
2022-09-05T10:36:34.927Z,22.33
2022-09-05T10:37:35.103Z,22.45
2022-09-05T10:38:34.805Z,22.54
2022-09-05T10:39:34.806Z,22.61
2022-09-05T10:40:36.324Z,22.64
2022-09-05T10:41:35.725Z,22.64
2022-09-05T10:42:34.739Z,22.67
2022-09-05T10:43:35.743Z,22.69
2022-09-05T10:44:35.696Z,22.74
2022-09-05T10:45:38.116Z,22.74
2022-09-05T10:46:50.248Z,22.70
2022-09-05T10:47:35.678Z,22.66
2022-09-05T10:48:34.698Z,22.61
2022-09-05T10:49:34.675Z,22.59
2022-09-05T10:50:34.755Z,22.51
2022-09-05T10:51:37.857Z,22.44
2022-09-05T10:52:35.317Z,22.42
2022-09-05T10:53:39.604Z,22.39
2022-09-05T10:54:35.615Z,22.45
2022-09-05T10:55:34.581Z,22.49
2022-09-05T10:56:34.567Z,22.60
2022-09-05T10:57:34.560Z,22.69
2022-09-05T11:00:59.430Z,22.76
2022-09-05T11:02:18.762Z,22.93
2022-09-05T11:02:23.658Z,22.84
2022-09-05T11:02:27.083Z,23.01
2022-09-05T11:02:41.041Z,23.06
2022-09-05T11:03:35.623Z,23.15
2022-09-05T11:04:37.124Z,23.19
2022-09-05T11:05:35.497Z,23.26
2022-09-05T11:06:34.537Z,23.34
2022-09-05T11:07:34.395Z,23.35
2022-09-05T11:08:35.079Z,23.38
2022-09-05T11:09:34.426Z,23.38
2022-09-05T11:10:34.396Z,23.32
2022-09-05T11:11:35.441Z,23.34
2022-09-05T11:12:34.390Z,23.37
2022-09-05T11:13:34.359Z,23.34
2022-09-05T11:14:34.859Z,23.31
2022-09-05T11:15:34.846Z,23.32
2022-09-05T11:16:34.355Z,23.29
2022-09-05T11:17:34.309Z,23.29
2022-09-05T11:18:34.342Z,23.31
2022-09-05T11:19:35.365Z,23.34
2022-09-05T11:20:34.794Z,23.37
2022-09-05T11:21:34.252Z,23.23
2022-09-05T11:22:34.246Z,23.18
2022-09-05T11:23:34.296Z,23.15
2022-09-05T11:24:34.238Z,23.16
2022-09-05T11:25:39.766Z,23.19
2022-09-05T11:26:35.174Z,23.25
2022-09-05T11:27:34.202Z,23.29
2022-09-05T11:28:34.260Z,23.23
2022-09-05T11:29:34.137Z,23.18
2022-09-05T11:30:38.080Z,23.23
2022-09-05T11:31:52.469Z,23.16
2022-09-05T11:38:01.237Z,23.18
2022-09-05T11:39:46.308Z,23.23
2022-09-05T11:39:47.983Z,23.31
2022-09-05T11:39:48.724Z,23.31
2022-09-05T11:39:55.339Z,23.35
2022-09-05T11:40:01.997Z,23.49
2022-09-05T11:40:02.701Z,23.53
2022-09-05T11:40:06.077Z,23.41
2022-09-05T11:40:48.519Z,23.54
2022-09-05T11:41:35.127Z,23.53
2022-09-05T11:42:34.026Z,23.39
2022-09-05T11:43:33.986Z,23.32
2022-09-05T11:44:34.074Z,23.18
2022-09-05T11:45:33.944Z,23.21
2022-09-05T11:46:33.961Z,23.18
2022-09-05T11:47:41.018Z,23.16
2022-09-05T11:48:34.861Z,23.19
2022-09-05T11:49:33.943Z,23.26
2022-09-05T11:50:33.857Z,23.35
2022-09-05T11:51:34.416Z,23.50
2022-09-05T11:52:33.839Z,23.56
2022-09-05T11:53:33.962Z,23.59
2022-09-05T11:54:33.813Z,23.67
2022-09-05T11:55:33.810Z,23.71
2022-09-05T11:56:34.149Z,23.77
2022-09-05T11:57:34.883Z,23.77
2022-09-05T11:58:43.611Z,23.68
2022-09-05T11:59:34.731Z,23.57
2022-09-05T12:00:34.521Z,23.50
2022-09-05T12:01:43.337Z,23.45
2022-09-05T12:02:37.646Z,23.59
2022-09-05T12:03:38.515Z,23.67
2022-09-05T12:04:36.343Z,23.78
2022-09-05T12:05:49.350Z,23.87
2022-09-05T12:06:34.695Z,23.90
2022-09-05T12:07:33.702Z,23.86
2022-09-05T12:08:33.691Z,23.77
2022-09-05T12:09:33.610Z,23.67
2022-09-05T12:10:45.754Z,23.63
2022-09-05T12:11:34.634Z,23.59
2022-09-05T12:13:34.632Z,23.53
2022-09-05T12:14:33.899Z,23.60
2022-09-05T12:15:33.565Z,23.67
2022-09-05T12:16:33.578Z,23.69
2022-09-05T12:17:35.266Z,23.63
2022-09-05T12:18:33.497Z,23.69
2022-09-05T12:19:34.490Z,23.77
2022-09-05T12:20:37.428Z,23.84
2022-09-05T12:21:38.197Z,23.78
2022-09-05T12:22:33.443Z,23.68
2022-09-05T12:23:51.454Z,23.64
2022-09-05T12:25:25.086Z,23.72
2022-09-05T12:27:41.391Z,23.82
2022-09-05T12:27:42.467Z,23.81
2022-09-05T12:27:44.142Z,23.78
2022-09-05T12:29:33.393Z,23.74
2022-09-05T12:29:38.727Z,23.57
2022-09-05T12:30:42.379Z,23.53
2022-09-05T12:32:30.560Z,23.52
2022-09-05T12:33:58.096Z,23.56
2022-09-05T12:36:01.800Z,23.56
2022-09-05T12:36:13.011Z,23.75
2022-09-05T12:40:05.087Z,23.79
2022-09-05T12:40:35.669Z,23.79
2022-09-05T12:40:44.762Z,23.87
2022-09-05T12:40:54.951Z,23.74
2022-09-05T12:41:34.084Z,23.97
2022-09-05T12:41:42.176Z,23.64
2022-09-05T12:42:08.472Z,24.04
2022-09-05T12:42:10.082Z,23.57
2022-09-05T12:42:45.720Z,23.99
2022-09-05T12:44:37.122Z,24.02
2022-09-05T12:44:38.345Z,24.06
2022-09-05T12:45:37.707Z,24.05
2022-09-05T12:46:33.148Z,23.99
2022-09-05T12:47:33.143Z,23.96
2022-09-05T12:48:39.228Z,23.99
2022-09-05T12:49:35.225Z,24.00
2022-09-05T12:50:33.094Z,23.96
2022-09-05T12:51:46.569Z,23.92
2022-09-05T12:52:34.086Z,23.93
2022-09-05T12:53:33.065Z,24.00
2022-09-05T12:54:34.664Z,24.02